Time;durP1;ratioP1;P1;durP2;ratioP2;P2;SDS_P1;SDS_P2;PMS_P1;PMS_P2;Temp;Humidity;BMP_temperature;BMP_pressure;BME280_temperature;BME280_humidity;BME280_pressure;Samples;Min_cycle;Max_cycle;Signal;HPM_P1;HPM_P2
2023/05/30 00:01:45;;;;;;;;;;;13.40;88.20;;;;;;8370424;28;19959;-71
2023/05/30 00:05:47;;;;;;;;;;;13.30;88.10;;;;;;8375478;28;19925;-71
2023/05/30 00:09:48;;;;;;;;;;;13.30;88.20;;;;;;8384213;28;20345;-71
2023/05/30 00:18:53;;;;;;;;;;;13.30;88.30;;;;;;8382497;28;19961;-71
2023/05/30 00:22:58;;;;;;;;;;;13.30;88.30;;;;;;8388879;28;20308;-71
2023/05/30 00:37:08;;;;;;;;;;;13.20;88.20;;;;;;8378398;28;20387;-71
2023/05/30 00:41:10;;;;;;;;;;;13.10;88.30;;;;;;8380471;28;19924;-71
2023/05/30 00:45:12;;;;;;;;;;;13.10;88.50;;;;;;8393329;28;19965;-71
2023/05/30 00:49:13;;;;;;;;;;;13.00;88.50;;;;;;8381476;28;20482;-71
2023/05/30 00:53:16;;;;;;;;;;;13.00;89.10;;;;;;8386685;28;19938;-71
2023/05/30 00:57:17;;;;;;;;;;;13.00;88.70;;;;;;8384315;28;19932;-71
2023/05/30 01:01:20;;;;;;;;;;;12.90;88.80;;;;;;8387870;28;19940;-71
2023/05/30 01:05:24;;;;;;;;;;;12.80;88.80;;;;;;8371205;28;20531;-71
2023/05/30 01:09:27;;;;;;;;;;;12.80;89.00;;;;;;8375307;28;20463;-71
2023/05/30 01:13:33;;;;;;;;;;;12.70;89.10;;;;;;8389806;28;19958;-71
2023/05/30 01:17:42;;;;;;;;;;;12.70;89.10;;;;;;8373826;28;19928;-71
2023/05/30 01:21:44;;;;;;;;;;;12.70;89.20;;;;;;8354196;28;20277;-71
2023/05/30 01:25:56;;;;;;;;;;;12.60;89.10;;;;;;8378592;28;19932;-71
2023/05/30 01:29:58;;;;;;;;;;;12.50;89.00;;;;;;8379925;28;19925;-71
2023/05/30 01:34:00;;;;;;;;;;;12.40;89.10;;;;;;8377682;28;19990;-71
2023/05/30 01:38:02;;;;;;;;;;;12.30;89.00;;;;;;8355102;28;19928;-71
2023/05/30 01:42:08;;;;;;;;;;;12.20;89.10;;;;;;8386544;28;19931;-71
2023/05/30 01:46:15;;;;;;;;;;;12.10;89.10;;;;;;8381113;28;19924;-71
2023/05/30 01:50:19;;;;;;;;;;;12.00;89.10;;;;;;8381087;28;20388;-71
2023/05/30 01:54:21;;;;;;;;;;;12.00;89.10;;;;;;8378428;28;19932;-71
2023/05/30 01:58:23;;;;;;;;;;;11.90;89.00;;;;;;8390569;28;19924;-71
2023/05/30 02:02:25;;;;;;;;;;;11.80;88.90;;;;;;8360208;28;19974;-71
2023/05/30 02:06:27;;;;;;;;;;;11.70;89.10;;;;;;8368363;28;19928;-71
2023/05/30 02:10:29;;;;;;;;;;;11.60;89.20;;;;;;8369082;28;19978;-71
2023/05/30 02:14:30;;;;;;;;;;;11.50;89.30;;;;;;8384969;28;19924;-71
2023/05/30 02:18:34;;;;;;;;;;;11.40;89.30;;;;;;8366061;28;19964;-71
2023/05/30 02:27:52;;;;;;;;;;;11.30;89.40;;;;;;8371555;28;20407;-70
2023/05/30 02:37:15;;;;;;;;;;;11.20;89.80;;;;;;8385066;28;19925;-71
2023/05/30 02:41:17;;;;;;;;;;;11.20;90.00;;;;;;8372464;28;20379;-71
2023/05/30 02:45:18;;;;;;;;;;;11.10;90.10;;;;;;8381692;28;19924;-70
2023/05/30 02:49:20;;;;;;;;;;;11.10;90.20;;;;;;8373898;28;19924;-71
2023/05/30 02:53:22;;;;;;;;;;;11.10;90.20;;;;;;8375049;28;20402;-71
2023/05/30 02:57:23;;;;;;;;;;;11.20;90.20;;;;;;8376234;28;19925;-71
2023/05/30 03:01:25;;;;;;;;;;;11.20;90.10;;;;;;8381494;28;19928;-71
2023/05/30 03:05:28;;;;;;;;;;;11.20;90.00;;;;;;8380823;28;20298;-71
2023/05/30 03:09:30;;;;;;;;;;;11.20;90.00;;;;;;8374846;28;19924;-70
2023/05/30 03:13:31;;;;;;;;;;;11.20;90.10;;;;;;8384705;28;20055;-71
2023/05/30 03:17:33;;;;;;;;;;;11.20;90.20;;;;;;8363527;28;19928;-70
2023/05/30 03:21:36;;;;;;;;;;;11.20;90.20;;;;;;8386439;28;20398;-71
2023/05/30 03:25:38;;;;;;;;;;;11.20;90.30;;;;;;8378498;28;20349;-71
2023/05/30 03:29:40;;;;;;;;;;;11.20;90.30;;;;;;8387711;28;19974;-71
2023/05/30 03:33:42;;;;;;;;;;;11.20;90.30;;;;;;8384844;28;19928;-71
2023/05/30 03:37:43;;;;;;;;;;;11.20;90.30;;;;;;8383259;28;19929;-71
2023/05/30 03:41:45;;;;;;;;;;;11.20;90.40;;;;;;8378466;28;20033;-71
2023/05/30 03:45:47;;;;;;;;;;;11.30;90.60;;;;;;8389103;28;19931;-71
2023/05/30 03:49:49;;;;;;;;;;;11.30;90.60;;;;;;8386870;28;20298;-71
2023/05/30 03:53:50;;;;;;;;;;;11.30;90.60;;;;;;8387626;28;19924;-71
2023/05/30 03:57:52;;;;;;;;;;;11.40;90.70;;;;;;8390347;28;19928;-71
2023/05/30 04:01:54;;;;;;;;;;;11.40;90.80;;;;;;8388847;28;20268;-71
2023/05/30 04:05:55;;;;;;;;;;;11.40;90.90;;;;;;8373650;28;20391;-70
2023/05/30 04:09:57;;;;;;;;;;;11.50;91.10;;;;;;8379951;28;19937;-70
2023/05/30 04:13:59;;;;;;;;;;;11.50;91.10;;;;;;8367789;28;22186;-70
2023/05/30 04:18:01;;;;;;;;;;;11.60;91.20;;;;;;8383236;28;19997;-70
2023/05/30 04:22:03;;;;;;;;;;;11.60;91.30;;;;;;8381040;28;19928;-70
2023/05/30 04:26:06;;;;;;;;;;;11.60;91.40;;;;;;8381276;28;19924;-70
2023/05/30 04:30:08;;;;;;;;;;;11.60;91.60;;;;;;8385722;28;19929;-70
2023/05/30 04:34:11;;;;;;;;;;;11.70;91.70;;;;;;8384083;28;19924;-71
2023/05/30 04:38:16;;;;;;;;;;;11.70;91.80;;;;;;8380078;28;19930;-71
2023/05/30 04:42:17;;;;;;;;;;;11.80;92.00;;;;;;8384925;28;19931;-71
2023/05/30 04:46:21;;;;;;;;;;;11.90;92.10;;;;;;8388475;28;20398;-70
2023/05/30 04:50:24;;;;;;;;;;;11.90;92.10;;;;;;8375261;28;19986;-70
2023/05/30 04:54:27;;;;;;;;;;;12.00;92.20;;;;;;8391347;28;19979;-71
2023/05/30 04:58:28;;;;;;;;;;;12.10;92.30;;;;;;8373238;28;19961;-71
2023/05/30 05:02:30;;;;;;;;;;;12.10;92.50;;;;;;8385256;28;19924;-71
2023/05/30 05:06:32;;;;;;;;;;;12.20;92.30;;;;;;8385484;28;19925;-71
2023/05/30 05:10:33;;;;;;;;;;;12.20;92.30;;;;;;8396119;28;19947;-70
2023/05/30 05:14:35;;;;;;;;;;;12.30;92.50;;;;;;8382544;28;19924;-71
2023/05/30 05:18:38;;;;;;;;;;;12.40;92.50;;;;;;8402156;28;19985;-70
2023/05/30 05:22:40;;;;;;;;;;;12.40;92.70;;;;;;8369459;28;19928;-71
2023/05/30 05:26:42;;;;;;;;;;;12.40;92.70;;;;;;8395098;28;19959;-71
2023/05/30 05:30:44;;;;;;;;;;;12.40;92.80;;;;;;8392343;28;20407;-70
2023/05/30 05:34:46;;;;;;;;;;;12.50;93.00;;;;;;8396249;28;19928;-71
2023/05/30 05:38:48;;;;;;;;;;;12.50;93.10;;;;;;8397297;28;19928;-71
2023/05/30 05:42:50;;;;;;;;;;;12.50;93.00;;;;;;8387241;28;19924;-71
2023/05/30 05:46:51;;;;;;;;;;;12.60;93.00;;;;;;8393736;28;19924;-70
2023/05/30 05:50:53;;;;;;;;;;;12.60;93.10;;;;;;8396429;28;19928;-71
2023/05/30 05:54:55;;;;;;;;;;;12.60;93.20;;;;;;8385719;28;19929;-71
2023/05/30 05:58:56;;;;;;;;;;;12.60;93.30;;;;;;8380226;28;19932;-71
2023/05/30 06:02:59;;;;;;;;;;;12.70;93.40;;;;;;8375254;28;19928;-71
2023/05/30 06:07:00;;;;;;;;;;;12.70;93.40;;;;;;8358449;28;20337;-71
2023/05/30 06:11:02;;;;;;;;;;;12.80;93.50;;;;;;8368367;28;19955;-70
2023/05/30 06:15:04;;;;;;;;;;;12.90;93.60;;;;;;8379658;28;19951;-70
2023/05/30 06:19:06;;;;;;;;;;;12.90;93.70;;;;;;8385295;28;19978;-71
2023/05/30 06:23:08;;;;;;;;;;;12.90;93.70;;;;;;8376890;28;20301;-71
2023/05/30 06:27:11;;;;;;;;;;;13.00;93.80;;;;;;8381281;28;20400;-72
2023/05/30 06:31:13;;;;;;;;;;;13.10;94.00;;;;;;8375495;28;19968;-71
2023/05/30 06:35:15;;;;;;;;;;;13.10;94.00;;;;;;8380071;28;19925;-71
2023/05/30 06:39:16;;;;;;;;;;;13.20;94.10;;;;;;8358151;28;19935;-71
2023/05/30 06:43:18;;;;;;;;;;;13.30;94.20;;;;;;8387179;28;19925;-71
2023/05/30 06:47:20;;;;;;;;;;;13.30;94.20;;;;;;8412008;28;19929;-71
2023/05/30 06:51:21;;;;;;;;;;;13.40;94.20;;;;;;8394725;28;19932;-70
2023/05/30 06:55:23;;;;;;;;;;;13.40;94.20;;;;;;8372791;28;19925;-71
2023/05/30 06:59:25;;;;;;;;;;;13.40;94.20;;;;;;8401531;28;19924;-71
2023/05/30 07:03:26;;;;;;;;;;;13.40;94.20;;;;;;8390947;28;20878;-71
2023/05/30 07:07:28;;;;;;;;;;;13.40;94.30;;;;;;8373017;28;19952;-71
2023/05/30 07:11:30;;;;;;;;;;;13.40;94.30;;;;;;8396832;28;20011;-72
2023/05/30 07:15:31;;;;;;;;;;;13.40;94.30;;;;;;8373362;28;19925;-71
2023/05/30 07:19:33;;;;;;;;;;;13.50;94.40;;;;;;8383864;28;20334;-71
2023/05/30 07:23:35;;;;;;;;;;;13.50;94.50;;;;;;8375002;28;20568;-71
2023/05/30 07:27:36;;;;;;;;;;;13.60;94.60;;;;;;8398853;28;19928;-71
2023/05/30 07:31:38;;;;;;;;;;;13.60;94.60;;;;;;8390495;28;20433;-71
2023/05/30 07:35:41;;;;;;;;;;;13.70;94.80;;;;;;8384373;28;20632;-71
2023/05/30 07:39:43;;;;;;;;;;;13.70;94.80;;;;;;8383933;28;20318;-71
2023/05/30 07:43:45;;;;;;;;;;;13.80;94.90;;;;;;8400735;28;19924;-71
2023/05/30 07:47:46;;;;;;;;;;;13.80;94.90;;;;;;8396385;28;19936;-71
2023/05/30 07:51:48;;;;;;;;;;;13.90;95.10;;;;;;8402608;28;19928;-71
2023/05/30 07:55:50;;;;;;;;;;;14.00;95.20;;;;;;8403699;28;19939;-71
2023/05/30 07:59:51;;;;;;;;;;;14.00;95.30;;;;;;8385027;28;19924;-71
2023/05/30 08:03:53;;;;;;;;;;;14.10;95.40;;;;;;8391327;28;19932;-71
2023/05/30 08:07:55;;;;;;;;;;;14.20;95.30;;;;;;8385380;28;19932;-71
2023/05/30 08:12:02;;;;;;;;;;;14.20;95.40;;;;;;8396359;28;19933;-71
2023/05/30 08:16:04;;;;;;;;;;;14.30;95.50;;;;;;8395570;28;19928;-71
2023/05/30 08:20:12;;;;;;;;;;;14.40;95.60;;;;;;8391467;28;19924;-71
2023/05/30 08:24:17;;;;;;;;;;;14.60;95.80;;;;;;8383194;28;20011;-71
2023/05/30 08:28:18;;;;;;;;;;;14.80;95.90;;;;;;8397208;28;19997;-71
2023/05/30 08:32:20;;;;;;;;;;;15.00;96.10;;;;;;8399313;28;19924;-71
2023/05/30 08:36:22;;;;;;;;;;;15.10;96.10;;;;;;8378677;28;19925;-71
2023/05/30 08:40:25;;;;;;;;;;;15.30;96.30;;;;;;8398597;28;20366;-70
2023/05/30 08:44:27;;;;;;;;;;;15.40;96.30;;;;;;8384704;28;19932;-71
2023/05/30 08:48:31;;;;;;;;;;;15.50;96.40;;;;;;8396137;28;19924;-71
2023/05/30 08:52:33;;;;;;;;;;;15.60;96.40;;;;;;8403380;28;19932;-70
2023/05/30 08:56:38;;;;;;;;;;;15.60;96.20;;;;;;8393012;28;19924;-71
2023/05/30 09:00:40;;;;;;;;;;;15.50;96.20;;;;;;8399563;28;19924;-72
2023/05/30 09:04:42;;;;;;;;;;;15.60;96.20;;;;;;8377686;28;19939;-71
2023/05/30 09:08:45;;;;;;;;;;;15.50;96.20;;;;;;8365503;28;19928;-71
2023/05/30 09:12:47;;;;;;;;;;;15.60;96.30;;;;;;8376486;28;19978;-71
2023/05/30 09:16:49;;;;;;;;;;;15.60;96.40;;;;;;8375893;28;19928;-71
2023/05/30 09:20:51;;;;;;;;;;;15.70;96.60;;;;;;8373114;28;19937;-70
2023/05/30 09:25:03;;;;;;;;;;;15.90;96.70;;;;;;8373636;28;20558;-71
2023/05/30 09:29:09;;;;;;;;;;;16.00;96.70;;;;;;8372338;28;19935;-71
2023/05/30 09:33:11;;;;;;;;;;;16.10;96.70;;;;;;8373259;28;19939;-71
2023/05/30 09:37:13;;;;;;;;;;;16.10;96.50;;;;;;8372379;28;20038;-72
2023/05/30 09:41:15;;;;;;;;;;;16.10;96.70;;;;;;8372476;28;19958;-71
2023/05/30 09:45:18;;;;;;;;;;;16.20;96.70;;;;;;8372861;28;20411;-71
2023/05/30 09:49:20;;;;;;;;;;;16.30;96.70;;;;;;8373040;28;19924;-71
2023/05/30 09:53:21;;;;;;;;;;;16.40;96.80;;;;;;8374001;28;19933;-71
2023/05/30 09:57:24;;;;;;;;;;;16.50;96.90;;;;;;8372505;28;19929;-71
2023/05/30 10:01:33;;;;;;;;;;;16.60;96.90;;;;;;8368926;28;19986;-71
2023/05/30 10:05:36;;;;;;;;;;;16.70;96.70;;;;;;8372263;28;19979;-70
2023/05/30 10:09:38;;;;;;;;;;;16.70;96.70;;;;;;8371569;28;19929;-71
2023/05/30 10:13:40;;;;;;;;;;;16.60;96.50;;;;;;8372225;28;19925;-72
2023/05/30 10:18:05;;;;;;;;;;;16.70;96.70;;;;;;8371040;28;19933;-71
2023/05/30 10:22:08;;;;;;;;;;;16.80;96.80;;;;;;8373687;28;19939;-71
2023/05/30 10:26:11;;;;;;;;;;;16.80;96.60;;;;;;8370914;28;19936;-71
2023/05/30 10:30:15;;;;;;;;;;;16.90;96.70;;;;;;8371925;28;19966;-70
2023/05/30 10:34:17;;;;;;;;;;;16.90;96.80;;;;;;8372361;28;19928;-71
2023/05/30 10:38:19;;;;;;;;;;;17.10;96.90;;;;;;8385414;28;19940;-71
2023/05/30 10:42:34;;;;;;;;;;;17.10;96.90;;;;;;8387173;28;19976;-72
2023/05/30 10:46:41;;;;;;;;;;;17.20;96.90;;;;;;8356786;28;20003;-70
2023/05/30 10:50:45;;;;;;;;;;;17.30;96.80;;;;;;8373092;28;19932;-70
2023/05/30 10:54:48;;;;;;;;;;;17.30;96.90;;;;;;8370483;28;19937;-71
2023/05/30 10:58:50;;;;;;;;;;;17.30;96.80;;;;;;8371617;28;19936;-71
2023/05/30 11:02:53;;;;;;;;;;;17.30;96.90;;;;;;8371162;28;19970;-70
2023/05/30 11:06:55;;;;;;;;;;;17.40;97.10;;;;;;8352247;28;19925;-70
2023/05/30 11:16:19;;;;;;;;;;;17.60;97.30;;;;;;8367324;28;19935;-71
2023/05/30 11:20:21;;;;;;;;;;;17.60;97.10;;;;;;8375102;28;19924;-71
2023/05/30 11:24:24;;;;;;;;;;;17.60;97.30;;;;;;8374175;28;21343;-71
2023/05/30 11:28:35;;;;;;;;;;;17.70;97.40;;;;;;8377253;28;19932;-71
2023/05/30 11:32:37;;;;;;;;;;;17.80;97.50;;;;;;8377948;28;19932;-71
2023/05/30 11:36:39;;;;;;;;;;;17.90;97.50;;;;;;8376280;28;19928;-71
2023/05/30 11:40:42;;;;;;;;;;;17.90;97.50;;;;;;8377398;28;19933;-71
2023/05/30 11:44:44;;;;;;;;;;;18.00;97.60;;;;;;8373671;28;19982;-71
2023/05/30 11:48:46;;;;;;;;;;;18.00;97.60;;;;;;8374480;28;19925;-71
2023/05/30 11:52:47;;;;;;;;;;;18.00;97.60;;;;;;8360190;28;19933;-71
2023/05/30 11:56:52;;;;;;;;;;;17.90;97.70;;;;;;8374240;28;19951;-71
2023/05/30 12:00:54;;;;;;;;;;;17.90;97.80;;;;;;8374209;28;19924;-70
2023/05/30 12:05:01;;;;;;;;;;;18.00;98.00;;;;;;8377759;28;19970;-71
2023/05/30 12:09:04;;;;;;;;;;;17.90;97.80;;;;;;8358029;28;20301;-72
2023/05/30 12:13:08;;;;;;;;;;;17.90;97.90;;;;;;8370323;28;19928;-71
2023/05/30 12:17:11;;;;;;;;;;;17.80;98.00;;;;;;8368790;28;20339;-71
2023/05/30 12:21:13;;;;;;;;;;;17.80;98.10;;;;;;8373278;28;19924;-70
2023/05/30 12:25:15;;;;;;;;;;;17.80;98.10;;;;;;8374086;28;19924;-71
2023/05/30 12:29:16;;;;;;;;;;;17.70;98.10;;;;;;8375361;28;19925;-71
2023/05/30 12:33:19;;;;;;;;;;;17.70;98.20;;;;;;8373410;28;19925;-71
2023/05/30 12:37:22;;;;;;;;;;;17.70;98.60;;;;;;8362494;28;19935;-71
2023/05/30 12:41:30;;;;;;;;;;;17.70;98.40;;;;;;8377170;28;19932;-71
2023/05/30 12:45:35;;;;;;;;;;;17.80;98.40;;;;;;8387914;28;19950;-71
2023/05/30 12:49:37;;;;;;;;;;;17.80;98.50;;;;;;8374021;28;19932;-71
2023/05/30 12:53:38;;;;;;;;;;;17.90;98.60;;;;;;8375685;28;19929;-72
2023/05/30 12:57:40;;;;;;;;;;;18.00;98.70;;;;;;8374246;28;20347;-71
2023/05/30 13:01:42;;;;;;;;;;;18.00;98.70;;;;;;8387059;28;19978;-71
2023/05/30 13:05:47;;;;;;;;;;;18.10;98.90;;;;;;8373031;28;24527;-71
2023/05/30 13:09:49;;;;;;;;;;;18.20;99.00;;;;;;8366711;28;19933;-71
2023/05/30 13:13:51;;;;;;;;;;;18.20;99.00;;;;;;8387457;28;19925;-70
2023/05/30 13:17:52;;;;;;;;;;;18.20;99.00;;;;;;8374697;28;19929;-71
2023/05/30 13:21:54;;;;;;;;;;;18.10;98.90;;;;;;8369331;28;20284;-72
2023/05/30 13:25:56;;;;;;;;;;;18.10;99.00;;;;;;8374514;28;19925;-72
2023/05/30 13:29:58;;;;;;;;;;;18.20;99.00;;;;;;8375759;28;20488;-71
2023/05/30 13:33:59;;;;;;;;;;;18.10;99.00;;;;;;8373024;28;20332;-71
2023/05/30 13:38:02;;;;;;;;;;;18.10;99.10;;;;;;8357603;28;19931;-72
2023/05/30 13:42:05;;;;;;;;;;;18.20;99.20;;;;;;8368911;28;19932;-71
2023/05/30 13:46:06;;;;;;;;;;;18.30;99.30;;;;;;8373337;28;19928;-71
2023/05/30 13:50:09;;;;;;;;;;;18.30;99.30;;;;;;8370684;28;20361;-71
2023/05/30 13:54:10;;;;;;;;;;;18.30;99.30;;;;;;8370457;28;20304;-71
2023/05/30 13:58:12;;;;;;;;;;;18.40;99.50;;;;;;8376573;28;19931;-71
2023/05/30 14:02:13;;;;;;;;;;;18.40;99.50;;;;;;8372649;28;20359;-71
2023/05/30 14:06:16;;;;;;;;;;;18.30;99.40;;;;;;8372614;28;19935;-71
2023/05/30 14:10:18;;;;;;;;;;;18.30;99.40;;;;;;8370661;28;19925;-71
2023/05/30 14:14:20;;;;;;;;;;;18.30;99.60;;;;;;8353122;28;20387;-71
2023/05/30 14:18:22;;;;;;;;;;;18.30;99.60;;;;;;8368503;28;19928;-71
2023/05/30 14:22:23;;;;;;;;;;;18.30;99.60;;;;;;8352109;28;19931;-72
2023/05/30 14:26:25;;;;;;;;;;;18.30;99.50;;;;;;8370624;28;19984;-71
2023/05/30 14:30:28;;;;;;;;;;;18.30;99.60;;;;;;8372593;28;19928;-72
2023/05/30 14:34:30;;;;;;;;;;;18.30;99.60;;;;;;8372475;28;19928;-71
2023/05/30 14:38:33;;;;;;;;;;;18.40;99.60;;;;;;8371916;28;19928;-71
2023/05/30 14:42:36;;;;;;;;;;;18.40;99.60;;;;;;8374056;28;19924;-71
2023/05/30 14:46:37;;;;;;;;;;;18.40;99.60;;;;;;8369984;28;19925;-71
2023/05/30 14:50:39;;;;;;;;;;;18.40;99.60;;;;;;8371398;28;19937;-71
2023/05/30 14:54:41;;;;;;;;;;;18.40;99.60;;;;;;8370482;28;19962;-72
2023/05/30 14:58:42;;;;;;;;;;;18.30;99.50;;;;;;8378085;28;19925;-71
2023/05/30 15:02:44;;;;;;;;;;;18.20;99.50;;;;;;8377979;28;19940;-71
2023/05/30 15:06:46;;;;;;;;;;;18.20;99.40;;;;;;8377201;28;19972;-71
2023/05/30 15:10:48;;;;;;;;;;;18.10;99.40;;;;;;8379695;28;20387;-72
2023/05/30 15:14:49;;;;;;;;;;;18.10;99.40;;;;;;8381928;28;19924;-72
2023/05/30 15:18:51;;;;;;;;;;;18.00;99.40;;;;;;8389401;28;19932;-71
2023/05/30 15:22:53;;;;;;;;;;;18.00;99.40;;;;;;8377564;28;19932;-72
2023/05/30 15:26:55;;;;;;;;;;;18.10;99.60;;;;;;8374428;28;19929;-71
2023/05/30 15:30:57;;;;;;;;;;;18.10;99.50;;;;;;8376441;28;19929;-71
2023/05/30 15:34:58;;;;;;;;;;;18.20;99.70;;;;;;8378444;28;19924;-71
2023/05/30 15:39:00;;;;;;;;;;;18.40;99.70;;;;;;8374792;28;19929;-72
2023/05/30 15:43:02;;;;;;;;;;;18.50;99.80;;;;;;8373641;28;20030;-71
2023/05/30 15:47:04;;;;;;;;;;;18.50;99.70;;;;;;8358192;28;20076;-71
2023/05/30 15:51:06;;;;;;;;;;;18.50;99.70;;;;;;8375165;28;19924;-71
2023/05/30 15:55:08;;;;;;;;;;;18.40;99.60;;;;;;8363039;28;19940;-70
2023/05/30 15:59:09;;;;;;;;;;;18.40;99.60;;;;;;8357314;28;20367;-71
2023/05/30 16:03:11;;;;;;;;;;;18.30;99.50;;;;;;8379033;28;19928;-71
2023/05/30 16:07:14;;;;;;;;;;;18.20;99.40;;;;;;8384867;28;20296;-71
2023/05/30 16:11:16;;;;;;;;;;;18.10;99.30;;;;;;8360744;28;19979;-71
2023/05/30 16:15:17;;;;;;;;;;;18.00;99.40;;;;;;8376667;28;19932;-71
2023/05/30 16:19:19;;;;;;;;;;;18.00;99.40;;;;;;8372020;28;19924;-71
2023/05/30 16:23:21;;;;;;;;;;;18.00;99.40;;;;;;8364312;28;20280;-71
2023/05/30 16:27:23;;;;;;;;;;;17.90;99.30;;;;;;8378573;28;19932;-71
2023/05/30 16:31:24;;;;;;;;;;;17.90;99.30;;;;;;8374247;28;19940;-70
2023/05/30 16:35:26;;;;;;;;;;;17.70;99.30;;;;;;8358434;28;19933;-71
2023/05/30 16:39:28;;;;;;;;;;;17.60;99.20;;;;;;8359493;28;19933;-71
2023/05/30 16:43:30;;;;;;;;;;;17.60;99.30;;;;;;8369357;28;19939;-71
2023/05/30 16:47:31;;;;;;;;;;;17.60;99.30;;;;;;8386650;28;20524;-71
2023/05/30 16:51:51;;;;;;;;;;;17.50;99.20;;;;;;8371636;28;19928;-71
2023/05/30 16:55:56;;;;;;;;;;;17.50;99.20;;;;;;8347855;28;19925;-71
2023/05/30 16:59:58;;;;;;;;;;;17.40;99.20;;;;;;8372137;28;19967;-71
2023/05/30 17:04:00;;;;;;;;;;;17.40;99.20;;;;;;8370932;28;20384;-71
2023/05/30 17:08:01;;;;;;;;;;;17.40;99.30;;;;;;8373159;28;20516;-70
2023/05/30 17:12:03;;;;;;;;;;;17.40;99.20;;;;;;8375515;28;19932;-72
2023/05/30 17:16:07;;;;;;;;;;;17.30;99.20;;;;;;8372515;28;19937;-71
2023/05/30 17:20:09;;;;;;;;;;;17.30;99.20;;;;;;8368084;28;20408;-71
2023/05/30 17:24:11;;;;;;;;;;;17.30;99.20;;;;;;8354430;28;20377;-71
2023/05/30 17:28:13;;;;;;;;;;;17.30;99.20;;;;;;8359769;28;20719;-70
2023/05/30 17:32:16;;;;;;;;;;;17.20;99.10;;;;;;8327079;28;19925;-71
2023/05/30 17:36:18;;;;;;;;;;;17.20;99.10;;;;;;8325274;28;20307;-71
2023/05/30 17:40:20;;;;;;;;;;;17.20;99.20;;;;;;8340554;28;19925;-71
2023/05/30 17:44:21;;;;;;;;;;;17.20;99.20;;;;;;8329569;28;19925;-71
2023/05/30 17:48:23;;;;;;;;;;;17.20;99.20;;;;;;8329242;28;20336;-71
2023/05/30 17:52:25;;;;;;;;;;;17.20;99.20;;;;;;8330435;28;19929;-71
2023/05/30 17:56:32;;;;;;;;;;;17.10;99.20;;;;;;8338165;28;19929;-70
2023/05/30 18:00:34;;;;;;;;;;;17.10;99.20;;;;;;8324157;28;19929;-71
2023/05/30 18:04:35;;;;;;;;;;;17.10;99.20;;;;;;8322376;28;19963;-71
2023/05/30 18:08:37;;;;;;;;;;;17.00;99.20;;;;;;8324962;28;20034;-71
2023/05/30 18:12:39;;;;;;;;;;;17.00;99.20;;;;;;8326094;28;20382;-71
2023/05/30 18:16:41;;;;;;;;;;;17.00;99.30;;;;;;8326089;28;20300;-70
2023/05/30 18:20:42;;;;;;;;;;;17.00;99.20;;;;;;8326910;28;19925;-70
2023/05/30 18:24:44;;;;;;;;;;;17.00;99.20;;;;;;8325599;28;20341;-71
2023/05/30 18:28:46;;;;;;;;;;;17.00;99.20;;;;;;8354988;28;19928;-70
2023/05/30 18:32:47;;;;;;;;;;;16.90;99.20;;;;;;8371431;28;19931;-71
2023/05/30 18:36:49;;;;;;;;;;;16.90;99.10;;;;;;8375088;28;20365;-70
2023/05/30 18:40:51;;;;;;;;;;;16.90;99.10;;;;;;8372532;28;19939;-71
2023/05/30 18:44:52;;;;;;;;;;;16.90;99.10;;;;;;8375097;28;19932;-71
2023/05/30 18:48:56;;;;;;;;;;;16.90;99.10;;;;;;8372611;28;19936;-71
2023/05/30 18:52:58;;;;;;;;;;;16.90;99.10;;;;;;8371714;28;19929;-71
2023/05/30 18:56:59;;;;;;;;;;;16.80;99.10;;;;;;8387761;28;19925;-71
2023/05/30 19:01:01;;;;;;;;;;;16.80;99.10;;;;;;8374514;28;19928;-71
2023/05/30 19:05:03;;;;;;;;;;;16.80;99.00;;;;;;8370304;28;19979;-71
2023/05/30 19:09:05;;;;;;;;;;;16.80;99.00;;;;;;8373009;28;19925;-71
2023/05/30 19:13:06;;;;;;;;;;;16.80;99.00;;;;;;8382987;28;20010;-71
2023/05/30 19:17:08;;;;;;;;;;;16.70;99.00;;;;;;8374499;28;20308;-71
2023/05/30 19:21:10;;;;;;;;;;;16.60;98.90;;;;;;8372291;28;19925;-72
2023/05/30 19:25:12;;;;;;;;;;;16.50;98.90;;;;;;8371986;28;20600;-71
2023/05/30 19:29:14;;;;;;;;;;;16.40;98.80;;;;;;8366493;28;19936;-71
2023/05/30 19:33:15;;;;;;;;;;;16.40;98.80;;;;;;8372002;28;19983;-71
2023/05/30 19:37:17;;;;;;;;;;;16.30;98.80;;;;;;8374637;28;19924;-71
2023/05/30 19:41:20;;;;;;;;;;;16.20;98.70;;;;;;8358907;28;19928;-71
2023/05/30 19:45:22;;;;;;;;;;;16.20;98.70;;;;;;8364276;28;19940;-71
2023/05/30 19:49:24;;;;;;;;;;;16.10;98.70;;;;;;8364322;28;19950;-71
2023/05/30 19:53:25;;;;;;;;;;;16.00;98.70;;;;;;8367680;28;19951;-71
2023/05/30 19:57:27;;;;;;;;;;;16.00;98.70;;;;;;8385576;28;19928;-71
2023/05/30 20:01:29;;;;;;;;;;;15.90;98.70;;;;;;8369035;28;20261;-71
2023/05/30 20:05:31;;;;;;;;;;;15.90;98.70;;;;;;8351468;28;20328;-71
2023/05/30 20:09:32;;;;;;;;;;;15.80;98.70;;;;;;8355524;28;19940;-71
2023/05/30 20:13:34;;;;;;;;;;;15.80;98.60;;;;;;8349862;28;19979;-71
2023/05/30 20:17:36;;;;;;;;;;;15.70;98.60;;;;;;8371985;28;20287;-71
2023/05/30 20:21:37;;;;;;;;;;;15.70;98.60;;;;;;8362595;28;19974;-71
2023/05/30 20:25:39;;;;;;;;;;;15.60;98.60;;;;;;8363215;28;20450;-71
2023/05/30 20:29:41;;;;;;;;;;;15.60;98.60;;;;;;8365424;28;19928;-71
2023/05/30 20:33:42;;;;;;;;;;;15.50;98.60;;;;;;8348137;28;19924;-71
2023/05/30 20:42:48;;;;;;;;;;;15.50;98.60;;;;;;8355892;28;19927;-71
2023/05/30 20:46:49;;;;;;;;;;;15.40;98.50;;;;;;8363868;28;19933;-71
2023/05/30 20:50:51;;;;;;;;;;;15.40;98.50;;;;;;8361434;28;19939;-71
2023/05/30 20:54:53;;;;;;;;;;;15.30;98.50;;;;;;8366661;28;19933;-71
2023/05/30 20:58:54;;;;;;;;;;;15.30;98.50;;;;;;8370654;28;19928;-71
2023/05/30 21:02:56;;;;;;;;;;;15.30;98.50;;;;;;8382800;28;19946;-71
2023/05/30 21:06:58;;;;;;;;;;;15.30;98.50;;;;;;8384879;28;19930;-71
2023/05/30 21:11:05;;;;;;;;;;;15.20;98.50;;;;;;8389155;28;19947;-73
2023/05/30 21:15:07;;;;;;;;;;;15.20;98.50;;;;;;8391126;28;19929;-71
2023/05/30 21:19:09;;;;;;;;;;;15.20;98.50;;;;;;8373618;28;19931;-71
2023/05/30 21:23:11;;;;;;;;;;;15.10;98.50;;;;;;8389436;28;19932;-71
2023/05/30 21:27:13;;;;;;;;;;;15.10;98.60;;;;;;8391281;28;19924;-71
2023/05/30 21:31:14;;;;;;;;;;;15.10;98.60;;;;;;8390214;28;19925;-71
2023/05/30 21:35:16;;;;;;;;;;;15.00;98.60;;;;;;8369363;28;19925;-71
2023/05/30 21:44:22;;;;;;;;;;;14.90;98.70;;;;;;8385983;28;19959;-71
2023/05/30 21:48:24;;;;;;;;;;;14.90;98.80;;;;;;8383108;28;19928;-71
2023/05/30 21:52:25;;;;;;;;;;;14.90;98.80;;;;;;8385706;28;19978;-72
2023/05/30 21:56:29;;;;;;;;;;;14.80;98.80;;;;;;8387710;28;19925;-72
2023/05/30 22:00:31;;;;;;;;;;;14.80;98.90;;;;;;8389101;28;19928;-72
2023/05/30 22:04:33;;;;;;;;;;;14.80;99.20;;;;;;8388634;28;19998;-71
2023/05/30 22:08:34;;;;;;;;;;;14.80;99.10;;;;;;8379691;28;19928;-71
2023/05/30 22:12:36;;;;;;;;;;;14.80;99.20;;;;;;8385874;28;19931;-72
2023/05/30 22:16:38;;;;;;;;;;;14.70;99.30;;;;;;8371420;28;19924;-72
2023/05/30 22:20:39;;;;;;;;;;;14.70;99.40;;;;;;8387071;28;19958;-72
2023/05/30 22:24:41;;;;;;;;;;;14.70;99.50;;;;;;8392924;28;19974;-72
2023/05/30 22:28:43;;;;;;;;;;;14.70;99.60;;;;;;8387463;28;19924;-71
2023/05/30 22:32:44;;;;;;;;;;;14.60;99.60;;;;;;8368675;28;19929;-71
2023/05/30 22:36:47;;;;;;;;;;;14.60;99.70;;;;;;8389237;28;19929;-71
2023/05/30 22:40:48;;;;;;;;;;;14.60;99.80;;;;;;8387135;28;19929;-71
2023/05/30 22:44:50;;;;;;;;;;;14.60;99.90;;;;;;8373124;28;19924;-71
2023/05/30 22:48:51;;;;;;;;;;;14.50;99.90;;;;;;8387663;28;19925;-71
2023/05/30 22:52:53;;;;;;;;;;;14.50;99.90;;;;;;8389761;28;19924;-71
2023/05/30 22:56:55;;;;;;;;;;;14.50;99.90;;;;;;8391701;28;20350;-71
2023/05/30 23:00:57;;;;;;;;;;;14.40;99.90;;;;;;8386323;28;20357;-72
2023/05/30 23:04:58;;;;;;;;;;;14.40;99.90;;;;;;8383533;28;19968;-72
2023/05/30 23:09:00;;;;;;;;;;;14.40;99.90;;;;;;8366078;28;20419;-71
2023/05/30 23:13:02;;;;;;;;;;;14.30;99.90;;;;;;8382863;28;20354;-72
2023/05/30 23:17:04;;;;;;;;;;;14.30;99.90;;;;;;8397737;28;19933;-71
2023/05/30 23:21:05;;;;;;;;;;;14.30;99.90;;;;;;8393391;28;19932;-71
2023/05/30 23:25:07;;;;;;;;;;;14.30;99.90;;;;;;8393595;28;19924;-72
2023/05/30 23:29:09;;;;;;;;;;;14.30;99.90;;;;;;8386465;28;19932;-72
2023/05/30 23:33:11;;;;;;;;;;;14.20;99.90;;;;;;8397589;28;19932;-71
2023/05/30 23:47:19;;;;;;;;;;;14.10;99.90;;;;;;8392531;28;19924;-71
2023/05/30 23:51:23;;;;;;;;;;;14.10;99.90;;;;;;8379669;28;19924;-72
2023/05/30 23:55:25;;;;;;;;;;;14.00;99.90;;;;;;8407918;28;20271;-71
2023/05/30 23:59:27;;;;;;;;;;;14.00;99.90;;;;;;8390392;28;19961;-72
